Time;durP1;ratioP1;P1;durP2;ratioP2;P2;SDS_P1;SDS_P2;PMS_P1;PMS_P2;Temp;Humidity;BMP_temperature;BMP_pressure;BME280_temperature;BME280_humidity;BME280_pressure;Samples;Min_cycle;Max_cycle;Signal;HPM_P1;HPM_P2
2021/04/24 00:04:30;;;;;;;12.20;4.07;;;;;;;;;;10489928;28;20209;-71
2021/04/24 00:09:32;;;;;;;10.47;4.13;;;;;;;;;;10493426;28;20310;-70
2021/04/24 00:14:34;;;;;;;12.60;4.60;;;;;;;;;;10490656;28;20188;-70
2021/04/24 00:19:36;;;;;;;11.83;4.40;;;;;;;;;;10492780;28;20216;-70
2021/04/24 00:24:37;;;;;;;9.83;4.40;;;;;;;;;;10493149;28;20192;-70
2021/04/24 00:29:40;;;;;;;9.13;4.13;;;;;;;;;;10485983;28;20711;-70
2021/04/24 00:34:41;;;;;;;8.40;4.40;;;;;;;;;;10490064;28;20238;-70
2021/04/24 00:39:43;;;;;;;10.63;4.00;;;;;;;;;;10491103;28;20219;-70
2021/04/24 00:44:46;;;;;;;11.47;4.10;;;;;;;;;;10483649;28;20224;-69
2021/04/24 00:49:47;;;;;;;12.97;4.37;;;;;;;;;;10491086;28;20280;-72
2021/04/24 00:54:49;;;;;;;12.43;4.50;;;;;;;;;;10489111;28;20197;-70
2021/04/24 00:59:51;;;;;;;10.00;4.13;;;;;;;;;;10491940;28;20324;-70
2021/04/24 01:04:54;;;;;;;8.63;4.00;;;;;;;;;;10473955;28;20225;-71
2021/04/24 01:09:56;;;;;;;10.07;4.87;;;;;;;;;;10488733;28;20228;-69
2021/04/24 01:14:58;;;;;;;11.13;4.27;;;;;;;;;;10486413;28;20275;-70
2021/04/24 01:20:00;;;;;;;10.60;4.00;;;;;;;;;;10487479;28;20240;-70
2021/04/24 01:25:04;;;;;;;11.67;4.50;;;;;;;;;;10482274;28;20221;-69
2021/04/24 01:30:06;;;;;;;9.07;4.43;;;;;;;;;;10487978;28;20768;-70
2021/04/24 01:35:10;;;;;;;11.73;4.30;;;;;;;;;;10489723;28;20267;-70
2021/04/24 01:40:14;;;;;;;12.00;4.43;;;;;;;;;;10484393;28;20309;-72
2021/04/24 01:45:17;;;;;;;11.97;4.40;;;;;;;;;;10479681;28;20298;-70
2021/04/24 01:50:20;;;;;;;10.70;4.63;;;;;;;;;;10513345;28;20239;-70
2021/04/24 01:55:23;;;;;;;12.87;5.33;;;;;;;;;;10490498;28;20201;-69
2021/04/24 02:00:26;;;;;;;12.30;5.30;;;;;;;;;;10483412;28;20212;-70
2021/04/24 02:05:28;;;;;;;15.13;6.20;;;;;;;;;;10488210;28;20377;-69
2021/04/24 02:10:30;;;;;;;14.17;6.20;;;;;;;;;;10485728;28;20212;-70
2021/04/24 02:15:32;;;;;;;13.73;5.80;;;;;;;;;;10486750;28;20254;-71
2021/04/24 02:20:36;;;;;;;12.40;5.77;;;;;;;;;;10485721;28;20220;-71
2021/04/24 02:25:38;;;;;;;14.87;6.30;;;;;;;;;;10488655;28;20320;-71
2021/04/24 02:30:41;;;;;;;15.53;6.13;;;;;;;;;;10488690;28;20220;-70
2021/04/24 02:35:44;;;;;;;15.33;6.20;;;;;;;;;;10485969;28;20196;-70
2021/04/24 02:40:47;;;;;;;14.03;6.17;;;;;;;;;;10488479;28;20680;-71
2021/04/24 02:45:49;;;;;;;11.57;5.30;;;;;;;;;;10480269;28;20262;-71
2021/04/24 02:50:51;;;;;;;13.20;5.87;;;;;;;;;;10486229;28;20693;-70
2021/04/24 02:55:53;;;;;;;14.23;5.87;;;;;;;;;;10482253;28;20207;-71
2021/04/24 03:00:55;;;;;;;12.50;5.47;;;;;;;;;;10488476;28;20660;-71
2021/04/24 03:05:57;;;;;;;12.83;4.70;;;;;;;;;;10474625;28;20287;-69
2021/04/24 03:11:00;;;;;;;12.37;6.07;;;;;;;;;;10484163;28;20234;-69
2021/04/24 03:16:02;;;;;;;10.77;5.17;;;;;;;;;;10485562;28;20192;-70
2021/04/24 03:21:04;;;;;;;13.23;5.07;;;;;;;;;;10483249;28;20211;-70
2021/04/24 03:26:07;;;;;;;13.13;5.37;;;;;;;;;;10485817;28;20262;-70
2021/04/24 03:31:09;;;;;;;12.07;4.90;;;;;;;;;;10492570;28;20216;-70
2021/04/24 03:36:11;;;;;;;11.07;4.20;;;;;;;;;;10494806;28;20501;-69
2021/04/24 03:41:13;;;;;;;14.13;5.00;;;;;;;;;;10485295;28;20749;-71
2021/04/24 03:46:15;;;;;;;13.77;5.33;;;;;;;;;;10485115;28;20341;-70
2021/04/24 03:51:17;;;;;;;12.17;4.80;;;;;;;;;;10490692;28;20219;-71
2021/04/24 03:56:19;;;;;;;9.60;4.73;;;;;;;;;;10487294;28;20192;-71
2021/04/24 04:01:20;;;;;;;11.70;5.07;;;;;;;;;;10495170;28;20684;-71
2021/04/24 04:06:23;;;;;;;11.70;4.87;;;;;;;;;;10490500;28;20196;-71
2021/04/24 04:11:25;;;;;;;10.83;5.17;;;;;;;;;;10490410;28;20615;-71
2021/04/24 04:16:27;;;;;;;14.23;5.67;;;;;;;;;;10495223;28;20222;-70
2021/04/24 04:21:28;;;;;;;14.53;5.63;;;;;;;;;;10489480;28;20289;-70
2021/04/24 04:26:31;;;;;;;11.17;5.37;;;;;;;;;;10491949;28;20302;-71
2021/04/24 04:31:33;;;;;;;13.13;4.90;;;;;;;;;;10491354;28;20220;-70
2021/04/24 04:36:35;;;;;;;12.00;4.57;;;;;;;;;;10476813;28;20548;-69
2021/04/24 04:41:37;;;;;;;11.73;5.00;;;;;;;;;;10457232;28;20216;-70
2021/04/24 04:46:38;;;;;;;11.27;3.83;;;;;;;;;;10454179;28;20644;-70
2021/04/24 04:51:40;;;;;;;11.30;4.67;;;;;;;;;;10475904;28;20243;-70
2021/04/24 04:56:43;;;;;;;9.77;4.30;;;;;;;;;;10473149;28;20188;-70
2021/04/24 05:01:44;;;;;;;13.03;4.63;;;;;;;;;;10463934;28;20209;-70
2021/04/24 05:07:06;;;;;;;13.97;4.30;;;;;;;;;;10486068;28;20588;-70
2021/04/24 05:12:12;;;;;;;10.87;4.63;;;;;;;;;;10481746;28;20501;-70
2021/04/24 05:17:14;;;;;;;14.07;4.57;;;;;;;;;;10471062;28;20546;-70
2021/04/24 05:22:16;;;;;;;9.40;4.00;;;;;;;;;;10482722;28;20223;-69
2021/04/24 05:27:18;;;;;;;9.40;3.60;;;;;;;;;;10456014;28;20568;-69
2021/04/24 05:32:20;;;;;;;9.47;3.70;;;;;;;;;;10458824;28;20220;-70
2021/04/24 05:37:21;;;;;;;10.13;3.50;;;;;;;;;;10476599;28;20208;-71
2021/04/24 05:42:24;;;;;;;10.33;3.87;;;;;;;;;;10472048;28;20240;-70
2021/04/24 05:47:25;;;;;;;9.03;3.60;;;;;;;;;;10489538;28;20208;-70
2021/04/24 05:52:27;;;;;;;12.00;4.33;;;;;;;;;;10472850;28;20224;-70
2021/04/24 05:57:30;;;;;;;8.50;3.83;;;;;;;;;;10480995;28;20238;-71
2021/04/24 06:02:32;;;;;;;9.53;3.60;;;;;;;;;;10490351;28;20259;-69
2021/04/24 06:07:34;;;;;;;10.50;3.87;;;;;;;;;;10484193;28;20719;-71
2021/04/24 06:12:37;;;;;;;8.97;3.53;;;;;;;;;;10486318;28;20212;-70
2021/04/24 06:17:39;;;;;;;9.87;3.90;;;;;;;;;;10485616;28;20553;-71
2021/04/24 06:22:41;;;;;;;9.50;3.50;;;;;;;;;;10515381;28;20267;-71
2021/04/24 06:27:45;;;;;;;7.60;3.77;;;;;;;;;;10470877;28;20271;-70
2021/04/24 06:32:47;;;;;;;8.50;3.63;;;;;;;;;;10483520;28;20654;-71
2021/04/24 06:37:48;;;;;;;11.37;4.00;;;;;;;;;;10487460;28;20191;-71
2021/04/24 06:42:51;;;;;;;10.03;4.00;;;;;;;;;;10480954;28;20336;-72
2021/04/24 06:47:53;;;;;;;11.90;4.47;;;;;;;;;;10485240;28;20212;-71
2021/04/24 06:52:55;;;;;;;12.53;4.80;;;;;;;;;;10486785;28;20216;-71
2021/04/24 06:57:57;;;;;;;9.37;4.37;;;;;;;;;;10488259;28;20196;-70
2021/04/24 07:02:59;;;;;;;10.07;4.67;;;;;;;;;;10488976;28;20702;-71
2021/04/24 07:08:01;;;;;;;13.30;4.90;;;;;;;;;;10476909;28;20215;-71
2021/04/24 07:13:03;;;;;;;10.87;4.50;;;;;;;;;;10481440;28;20616;-71
2021/04/24 07:18:05;;;;;;;10.17;4.50;;;;;;;;;;10482496;28;20212;-71
2021/04/24 07:23:07;;;;;;;9.90;5.30;;;;;;;;;;10479285;28;20213;-71
2021/04/24 07:28:09;;;;;;;11.07;5.07;;;;;;;;;;10475331;28;20234;-70
2021/04/24 07:33:11;;;;;;;9.40;5.03;;;;;;;;;;10484265;28;20216;-69
2021/04/24 07:38:12;;;;;;;10.73;5.80;;;;;;;;;;10474377;28;20188;-70
2021/04/24 07:43:15;;;;;;;10.10;5.60;;;;;;;;;;10522624;28;20230;-70
2021/04/24 07:48:17;;;;;;;10.02;6.20;;;;;;;;;;10502999;28;20239;-68
2021/04/24 07:53:20;;;;;;;11.25;5.82;;;;;;;;;;10489362;28;20212;-66
2021/04/24 07:58:23;;;;;;;11.00;7.30;;;;;;;;;;10472983;28;20195;-70
2021/04/24 08:03:24;;;;;;;10.30;6.47;;;;;;;;;;10497563;28;20219;-70
2021/04/24 08:08:26;;;;;;;11.80;7.25;;;;;;;;;;10491232;28;20250;-70
2021/04/24 08:13:28;;;;;;;12.20;6.93;;;;;;;;;;10483907;28;20656;-70
2021/04/24 08:18:30;;;;;;;11.02;7.30;;;;;;;;;;10496674;28;20192;-71
2021/04/24 08:23:32;;;;;;;10.65;7.05;;;;;;;;;;10493952;28;20220;-71
2021/04/24 08:28:34;;;;;;;10.60;6.82;;;;;;;;;;10498970;28;20732;-70
2021/04/24 08:33:36;;;;;;;9.68;6.78;;;;;;;;;;10495782;28;20487;-71
2021/04/24 08:38:38;;;;;;;11.32;6.72;;;;;;;;;;10491273;28;20279;-70
2021/04/24 08:43:40;;;;;;;10.75;5.60;;;;;;;;;;10489806;28;20299;-69
2021/04/24 08:48:43;;;;;;;9.10;5.85;;;;;;;;;;10490305;28;20581;-70
2021/04/24 08:53:44;;;;;;;10.00;6.78;;;;;;;;;;10485869;28;20277;-70
2021/04/24 08:58:47;;;;;;;10.90;6.65;;;;;;;;;;10489649;28;20216;-70
2021/04/24 09:03:49;;;;;;;9.02;6.35;;;;;;;;;;10490744;28;20290;-71
2021/04/24 09:08:54;;;;;;;12.23;6.57;;;;;;;;;;10490674;28;20216;-72
2021/04/24 09:14:00;;;;;;;9.93;6.40;;;;;;;;;;10489230;28;20209;-72
2021/04/24 09:19:21;;;;;;;11.55;6.65;;;;;;;;;;10483580;28;20606;-70
2021/04/24 09:24:33;;;;;;;9.10;6.50;;;;;;;;;;10489942;28;20287;-71
2021/04/24 09:29:36;;;;;;;10.25;6.50;;;;;;;;;;10488475;28;20300;-71
2021/04/24 09:34:38;;;;;;;15.50;6.93;;;;;;;;;;10489714;28;20655;-72
2021/04/24 09:39:44;;;;;;;9.95;6.45;;;;;;;;;;10485498;28;20717;-71
2021/04/24 09:44:46;;;;;;;10.55;6.72;;;;;;;;;;10487300;28;20301;-72
2021/04/24 09:49:47;;;;;;;8.55;5.90;;;;;;;;;;10488627;28;20335;-72
2021/04/24 09:54:49;;;;;;;8.80;6.05;;;;;;;;;;10488548;28;20218;-72
2021/04/24 09:59:52;;;;;;;9.70;6.40;;;;;;;;;;10490204;28;20211;-71
2021/04/24 10:05:05;;;;;;;9.40;6.57;;;;;;;;;;10479193;28;20204;-71
2021/04/24 10:10:08;;;;;;;9.38;6.53;;;;;;;;;;10483882;28;20211;-71
2021/04/24 10:15:11;;;;;;;10.70;6.10;;;;;;;;;;10479855;28;20200;-71
2021/04/24 10:20:13;;;;;;;10.57;6.80;;;;;;;;;;10518437;28;20246;-71
2021/04/24 10:25:15;;;;;;;8.90;6.53;;;;;;;;;;10481778;28;20602;-73
2021/04/24 10:30:19;;;;;;;10.52;7.20;;;;;;;;;;10479478;28;20692;-72
2021/04/24 10:35:21;;;;;;;10.48;6.63;;;;;;;;;;10486500;28;20193;-71
2021/04/24 10:40:27;;;;;;;9.52;6.68;;;;;;;;;;10478015;28;20244;-72
2021/04/24 10:45:31;;;;;;;9.75;7.15;;;;;;;;;;10481087;28;20254;-72
2021/04/24 10:50:45;;;;;;;11.65;8.60;;;;;;;;;;10479091;28;20780;-72
2021/04/24 10:55:48;;;;;;;10.38;8.82;;;;;;;;;;10514733;28;20220;-72
2021/04/24 11:00:51;;;;;;;8.52;6.45;;;;;;;;;;10501703;28;20584;-72
2021/04/24 11:06:06;;;;;;;10.98;7.07;;;;;;;;;;10475970;28;20217;-71
2021/04/24 11:11:09;;;;;;;9.70;7.55;;;;;;;;;;10472660;28;20216;-71
2021/04/24 11:16:14;;;;;;;10.57;7.53;;;;;;;;;;10475799;28;20196;-71
2021/04/24 11:21:23;;;;;;;10.57;7.63;;;;;;;;;;10480200;28;20306;-70
2021/04/24 11:26:39;;;;;;;9.45;7.05;;;;;;;;;;10477565;28;20315;-71
2021/04/24 11:31:49;;;;;;;9.38;6.57;;;;;;;;;;10480333;28;20208;-71
2021/04/24 11:37:06;;;;;;;10.73;7.22;;;;;;;;;;10480892;28;20268;-71
2021/04/24 11:42:23;;;;;;;10.35;7.10;;;;;;;;;;10475285;28;20224;-71
2021/04/24 11:47:46;;;;;;;10.00;7.32;;;;;;;;;;10482051;28;20587;-69
2021/04/24 11:52:51;;;;;;;11.10;7.82;;;;;;;;;;10483681;28;20378;-70
2021/04/24 11:58:01;;;;;;;13.18;7.85;;;;;;;;;;10486715;28;20176;-69
2021/04/24 12:03:04;;;;;;;10.85;7.40;;;;;;;;;;10492048;28;20235;-70
2021/04/24 12:08:06;;;;;;;9.50;7.20;;;;;;;;;;10493276;28;20545;-68
2021/04/24 12:13:08;;;;;;;11.75;7.22;;;;;;;;;;10484996;28;20212;-70
2021/04/24 12:18:10;;;;;;;8.65;6.68;;;;;;;;;;10488323;28;20284;-70
2021/04/24 12:23:13;;;;;;;10.77;6.93;;;;;;;;;;10480022;28;20212;-71
2021/04/24 12:28:15;;;;;;;8.85;6.43;;;;;;;;;;10495156;28;20284;-71
2021/04/24 12:33:18;;;;;;;9.57;6.18;;;;;;;;;;10482855;28;20304;-69
2021/04/24 12:38:20;;;;;;;10.65;6.45;;;;;;;;;;10482919;28;20197;-71
2021/04/24 12:43:24;;;;;;;9.35;6.60;;;;;;;;;;10488195;28;20671;-70
2021/04/24 12:48:27;;;;;;;10.02;6.55;;;;;;;;;;10484562;28;20300;-69
2021/04/24 12:53:30;;;;;;;12.02;7.38;;;;;;;;;;10482731;28;20241;-70
2021/04/24 12:58:32;;;;;;;10.43;6.25;;;;;;;;;;10485545;28;20185;-69
2021/04/24 13:03:35;;;;;;;9.85;6.47;;;;;;;;;;10484918;28;20239;-70
2021/04/24 13:08:36;;;;;;;10.82;6.25;;;;;;;;;;10479539;28;20336;-69
2021/04/24 13:13:39;;;;;;;9.85;5.35;;;;;;;;;;10481057;28;20239;-69
2021/04/24 13:18:42;;;;;;;9.20;4.93;;;;;;;;;;10478183;28;20201;-69
2021/04/24 13:23:57;;;;;;;10.45;5.47;;;;;;;;;;10484822;28;20284;-69
2021/04/24 13:29:09;;;;;;;11.13;5.82;;;;;;;;;;10490154;28;20277;-70
2021/04/24 13:34:32;;;;;;;10.50;6.28;;;;;;;;;;10477928;28;20247;-69
2021/04/24 13:39:35;;;;;;;9.45;6.28;;;;;;;;;;10479319;28;20200;-69
2021/04/24 13:44:37;;;;;;;9.90;6.38;;;;;;;;;;10485658;28;20204;-69
2021/04/24 13:49:42;;;;;;;9.93;5.72;;;;;;;;;;10476368;28;20220;-69
2021/04/24 13:54:44;;;;;;;10.63;6.28;;;;;;;;;;10487138;28;20222;-68
2021/04/24 13:59:46;;;;;;;10.57;5.90;;;;;;;;;;10484274;28;20532;-69
2021/04/24 14:04:48;;;;;;;10.20;5.90;;;;;;;;;;10489322;28;20242;-68
2021/04/24 14:09:50;;;;;;;10.95;6.00;;;;;;;;;;10480539;28;20753;-70
2021/04/24 14:14:52;;;;;;;10.25;5.88;;;;;;;;;;10485151;28;20283;-70
2021/04/24 14:19:56;;;;;;;10.52;6.18;;;;;;;;;;10484761;28;20216;-70
2021/04/24 14:24:58;;;;;;;10.48;5.97;;;;;;;;;;10478433;28;20687;-70
2021/04/24 14:30:00;;;;;;;9.52;6.18;;;;;;;;;;10489463;28;20293;-69
2021/04/24 14:35:03;;;;;;;11.00;6.82;;;;;;;;;;10485546;28;20188;-69
2021/04/24 14:40:05;;;;;;;9.50;6.10;;;;;;;;;;10488441;28;20310;-70
2021/04/24 14:45:07;;;;;;;10.05;5.88;;;;;;;;;;10485818;28;20216;-69
2021/04/24 14:50:10;;;;;;;10.07;5.90;;;;;;;;;;10483453;28;20370;-69
2021/04/24 14:55:12;;;;;;;9.73;5.68;;;;;;;;;;10484723;28;21115;-70
2021/04/24 15:00:18;;;;;;;10.95;6.25;;;;;;;;;;10488743;28;20320;-70
2021/04/24 15:05:21;;;;;;;11.35;5.47;;;;;;;;;;10486112;28;20295;-69
2021/04/24 15:10:23;;;;;;;10.90;5.80;;;;;;;;;;10484767;28;20213;-68
2021/04/24 15:15:25;;;;;;;11.00;6.03;;;;;;;;;;10478139;28;20189;-70
2021/04/24 15:20:27;;;;;;;9.30;5.68;;;;;;;;;;10481094;28;20238;-69
2021/04/24 15:25:29;;;;;;;11.45;7.65;;;;;;;;;;10475379;28;20219;-71
2021/04/24 15:30:31;;;;;;;10.85;6.28;;;;;;;;;;10470591;28;20699;-70
2021/04/24 15:35:33;;;;;;;9.27;5.95;;;;;;;;;;10476203;28;20340;-69
2021/04/24 15:40:35;;;;;;;11.88;5.72;;;;;;;;;;10475556;28;20718;-69
2021/04/24 15:45:37;;;;;;;12.27;5.90;;;;;;;;;;10487312;28;20301;-69
2021/04/24 15:50:39;;;;;;;14.00;7.25;;;;;;;;;;10476472;28;20648;-69
2021/04/24 15:55:41;;;;;;;10.82;6.32;;;;;;;;;;10479212;28;20192;-69
2021/04/24 16:00:43;;;;;;;11.77;5.88;;;;;;;;;;10483042;28;20239;-68
2021/04/24 16:05:45;;;;;;;11.47;6.47;;;;;;;;;;10483755;28;20231;-69
2021/04/24 16:10:47;;;;;;;11.67;6.50;;;;;;;;;;10485122;28;20234;-69
2021/04/24 16:15:49;;;;;;;12.47;6.87;;;;;;;;;;10483544;28;20196;-69
2021/04/24 16:20:51;;;;;;;13.57;6.97;;;;;;;;;;10482419;28;20240;-69
2021/04/24 16:25:53;;;;;;;12.57;6.77;;;;;;;;;;10485214;28;20200;-69
2021/04/24 16:30:55;;;;;;;13.70;7.23;;;;;;;;;;10482118;28;20266;-69
2021/04/24 16:35:57;;;;;;;12.20;6.80;;;;;;;;;;10523683;28;20267;-69
2021/04/24 16:40:59;;;;;;;11.70;6.77;;;;;;;;;;10485649;28;20230;-69
2021/04/24 16:46:00;;;;;;;11.83;6.30;;;;;;;;;;10491543;28;20220;-70
2021/04/24 16:51:04;;;;;;;10.50;6.20;;;;;;;;;;10491307;28;20205;-70
2021/04/24 16:56:05;;;;;;;11.03;6.67;;;;;;;;;;10488147;28;20552;-69
2021/04/24 17:01:07;;;;;;;11.00;6.43;;;;;;;;;;10491583;28;20220;-70
2021/04/24 17:06:10;;;;;;;16.60;6.60;;;;;;;;;;10518044;28;20407;-70
2021/04/24 17:11:11;;;;;;;11.30;6.53;;;;;;;;;;10487773;28;20215;-69
2021/04/24 17:16:14;;;;;;;11.43;6.33;;;;;;;;;;10489240;28;20199;-70
2021/04/24 17:21:16;;;;;;;11.10;5.63;;;;;;;;;;10480626;28;20335;-69
2021/04/24 17:26:18;;;;;;;11.73;6.10;;;;;;;;;;10491547;28;20722;-69
2021/04/24 17:31:19;;;;;;;13.17;6.50;;;;;;;;;;10491436;28;20671;-69
2021/04/24 17:36:22;;;;;;;11.60;6.50;;;;;;;;;;10476611;28;20193;-70
2021/04/24 17:41:25;;;;;;;11.07;6.10;;;;;;;;;;10476146;28;20696;-70
2021/04/24 17:46:27;;;;;;;13.37;6.40;;;;;;;;;;10489225;28;20213;-70
2021/04/24 17:51:30;;;;;;;12.37;6.13;;;;;;;;;;10480225;28;20220;-70
2021/04/24 17:56:32;;;;;;;12.87;6.07;;;;;;;;;;10490282;28;20611;-69
2021/04/24 18:01:33;;;;;;;11.63;5.40;;;;;;;;;;10487621;28;20406;-70
2021/04/24 18:06:36;;;;;;;11.17;5.53;;;;;;;;;;10485648;28;20257;-69
2021/04/24 18:11:38;;;;;;;11.10;5.50;;;;;;;;;;10480531;28;20208;-70
2021/04/24 18:16:40;;;;;;;11.30;6.10;;;;;;;;;;10485523;28;20294;-69
2021/04/24 18:21:43;;;;;;;11.30;5.87;;;;;;;;;;10488045;28;20205;-68
2021/04/24 18:26:45;;;;;;;12.57;6.07;;;;;;;;;;10496612;28;20208;-71
2021/04/24 18:31:46;;;;;;;14.33;6.23;;;;;;;;;;10482776;28;20208;-70
2021/04/24 18:36:50;;;;;;;14.53;6.73;;;;;;;;;;10455104;28;20188;-70
2021/04/24 18:41:52;;;;;;;15.33;7.33;;;;;;;;;;10455627;28;20223;-69
2021/04/24 18:46:54;;;;;;;12.30;5.87;;;;;;;;;;10444304;28;20205;-69
2021/04/24 18:51:56;;;;;;;12.40;5.50;;;;;;;;;;10455396;28;20580;-69
2021/04/24 18:56:58;;;;;;;11.30;6.00;;;;;;;;;;10472840;28;20224;-70
2021/04/24 19:02:00;;;;;;;12.30;7.00;;;;;;;;;;10488998;28;20442;-70
2021/04/24 19:07:02;;;;;;;12.87;6.47;;;;;;;;;;10497049;28;20651;-68
2021/04/24 19:12:04;;;;;;;11.80;5.67;;;;;;;;;;10468968;28;20223;-70
2021/04/24 19:17:07;;;;;;;12.13;5.67;;;;;;;;;;10466853;28;20291;-69
2021/04/24 19:22:10;;;;;;;14.17;6.10;;;;;;;;;;10463248;28;20205;-69
2021/04/24 19:27:11;;;;;;;12.50;6.70;;;;;;;;;;10488495;28;20204;-71
2021/04/24 19:32:13;;;;;;;14.37;6.30;;;;;;;;;;10484784;28;20223;-69
2021/04/24 19:37:15;;;;;;;12.70;6.47;;;;;;;;;;10488281;28;20253;-71
2021/04/24 19:42:17;;;;;;;14.40;7.57;;;;;;;;;;10507136;28;20212;-72
2021/04/24 19:47:19;;;;;;;13.70;6.80;;;;;;;;;;10485502;28;20447;-74
2021/04/24 19:52:22;;;;;;;13.93;6.80;;;;;;;;;;10476390;28;20232;-71
2021/04/24 19:57:23;;;;;;;12.87;7.10;;;;;;;;;;10484960;28;20200;-72
2021/04/24 20:02:25;;;;;;;17.37;6.93;;;;;;;;;;10477812;28;20264;-71
2021/04/24 20:07:27;;;;;;;12.77;6.50;;;;;;;;;;10476337;28;20353;-72
2021/04/24 20:12:29;;;;;;;13.00;7.20;;;;;;;;;;10489847;28;20220;-73
2021/04/24 20:17:31;;;;;;;14.00;7.87;;;;;;;;;;10482057;28;20204;-68
2021/04/24 20:22:34;;;;;;;13.93;7.17;;;;;;;;;;10475037;28;20219;-71
2021/04/24 20:27:35;;;;;;;13.53;6.30;;;;;;;;;;10491095;28;20298;-71
2021/04/24 20:32:37;;;;;;;14.60;7.63;;;;;;;;;;10484439;28;20223;-70
2021/04/24 20:37:40;;;;;;;14.83;7.40;;;;;;;;;;10495678;28;20199;-70
2021/04/24 20:42:41;;;;;;;14.50;7.17;;;;;;;;;;10490897;28;20246;-72
2021/04/24 20:47:43;;;;;;;15.02;7.93;;;;;;;;;;10489350;28;20450;-71
2021/04/24 20:52:46;;;;;;;14.87;7.60;;;;;;;;;;10485759;28;20769;-69
2021/04/24 20:57:47;;;;;;;16.47;7.63;;;;;;;;;;10477317;28;20256;-70
2021/04/24 21:02:49;;;;;;;16.00;8.33;;;;;;;;;;10461899;28;20623;-69
2021/04/24 21:07:52;;;;;;;16.42;9.02;;;;;;;;;;10486570;28;20478;-72
2021/04/24 21:12:53;;;;;;;15.50;7.50;;;;;;;;;;10487110;28;20679;-70
2021/04/24 21:17:56;;;;;;;14.70;7.70;;;;;;;;;;10481213;28;20510;-70
2021/04/24 21:22:58;;;;;;;14.73;7.70;;;;;;;;;;10489009;28;20212;-71
2021/04/24 21:28:00;;;;;;;14.70;7.53;;;;;;;;;;10487638;28;20246;-69
2021/04/24 21:33:02;;;;;;;15.47;7.53;;;;;;;;;;10486433;28;20295;-70
2021/04/24 21:38:05;;;;;;;13.47;7.37;;;;;;;;;;10488493;28;20185;-70
2021/04/24 21:43:06;;;;;;;13.80;6.87;;;;;;;;;;10487181;28;20640;-70
2021/04/24 21:48:08;;;;;;;15.87;7.20;;;;;;;;;;10487915;28;20702;-70
2021/04/24 21:53:18;;;;;;;16.03;7.20;;;;;;;;;;10482214;28;20250;-70
2021/04/24 21:58:20;;;;;;;13.13;7.03;;;;;;;;;;10481678;28;20291;-68
2021/04/24 22:03:23;;;;;;;15.47;7.47;;;;;;;;;;10486512;28;20690;-69
2021/04/24 22:08:26;;;;;;;15.73;7.87;;;;;;;;;;10483377;28;20240;-68
2021/04/24 22:13:28;;;;;;;14.47;7.43;;;;;;;;;;10480100;28;20307;-70
2021/04/24 22:18:29;;;;;;;14.53;7.03;;;;;;;;;;10487511;28;20552;-70
2021/04/24 22:23:32;;;;;;;13.60;7.03;;;;;;;;;;10484763;28;20227;-71
2021/04/24 22:28:33;;;;;;;13.33;6.73;;;;;;;;;;10486945;28;20236;-70
2021/04/24 22:33:35;;;;;;;14.07;6.83;;;;;;;;;;10486810;28;20224;-72
2021/04/24 22:38:37;;;;;;;12.83;6.67;;;;;;;;;;10486386;28;20253;-70
2021/04/24 22:43:39;;;;;;;13.73;6.90;;;;;;;;;;10484810;28;20212;-71
2021/04/24 22:48:41;;;;;;;13.23;6.83;;;;;;;;;;10482277;28;21661;-70
2021/04/24 22:53:43;;;;;;;12.77;6.27;;;;;;;;;;10482230;28;20683;-70
2021/04/24 22:58:45;;;;;;;12.73;6.37;;;;;;;;;;10485069;28;20238;-68
2021/04/24 23:03:46;;;;;;;13.30;6.80;;;;;;;;;;10486442;28;20228;-70
2021/04/24 23:08:49;;;;;;;12.20;6.70;;;;;;;;;;10483349;28;20216;-69
2021/04/24 23:13:51;;;;;;;14.40;6.47;;;;;;;;;;10483551;28;20310;-70
2021/04/24 23:18:53;;;;;;;14.67;6.63;;;;;;;;;;10515622;28;20674;-69
2021/04/24 23:23:56;;;;;;;13.80;5.77;;;;;;;;;;10483830;28;20220;-70
2021/04/24 23:28:58;;;;;;;12.73;6.07;;;;;;;;;;10486367;28;20209;-69
2021/04/24 23:34:00;;;;;;;18.10;6.43;;;;;;;;;;10484818;28;20224;-71
2021/04/24 23:39:03;;;;;;;10.60;5.47;;;;;;;;;;10482969;28;20196;-71
2021/04/24 23:44:04;;;;;;;15.30;6.00;;;;;;;;;;10485013;28;20783;-71
2021/04/24 23:49:06;;;;;;;12.97;5.40;;;;;;;;;;10481564;28;20667;-71
2021/04/24 23:54:08;;;;;;;11.97;5.73;;;;;;;;;;10494062;28;20293;-69
2021/04/24 23:59:10;;;;;;;12.10;5.63;;;;;;;;;;10484746;28;20193;-69
